Portada
METAR-TAF:

METAR-TAF

Aeroports :

Aeroport de Berlín-Tegel

Berlín, Alemanya

latitud: 52-34N, longitud: 013-19E, altitud: 37 m

Observació

L'informe es va fer fa 7 minuts, a les 13:50 UTC
Vent 11 kt del Est, variant entre Nord-Est i Est/Sud-Est
Temperatura 25°C
Humitat 32%
Pressió 1021 hPa
Visibilitat 10 km o més
sense núvols per sota de 1500 mi sense presència de cumulonimbus.

METAR: EDDT 241350Z 09011KT 040V120 CAVOK 25/07 Q1021 TEMPO 09015G25KT

Hora: 15:57 (13:57 UTC)

Pronòstic

L'informe es va fer fa 2 hores i 57 minuts, a les 11:00 UTC
Pronòstic vàlid del 24 a les 12 UTC al 25 a les 12 UTC
Vent 15 kt del Est amb ràfegues de 25 kt
Visibilitat 10 km o més
sense núvols per sota de 1500 mi sense presència de cumulonimbus.
Evolucionant progressivament
l' 24 a les 15 UTC al 24 a les 18 UTC
Vent 9 kt del Est/Nord-Est

TAF: EDDT 241100Z 2412/2512 08015G25KT CAVOK BECMG 2415/2418 07009KT

Observacions i pronòstics meteorològics de més de 4000 aeroports (METAR i TAF).

Les estacions disponibles són els punts grocs i vermells al mapa.

Posi el ratolí al punt desitjat per veure el nom de l'estació.

Feu clic per veure les observacions i els pronòstics meteorològics.

Per canviar el mapa: feu clic els botons verds amb una creu de color negre per apropar; al botó verd amb un guió per allunyar la imatge; o en les fletxes verdes per a mapes adjacents.


METAR-TAF: